N428MC KGAO-KCLL
Flight info
| Callsign | N428MC |
|---|---|
| Flight time | 0h 55m |
| Altitude | 24000 |
| Route | TBD LVH T254 HIPPS |
| Aircraft | B350/M-VGD/A |
Departure
| Time | 2026-05-05 21:17 |
|---|---|
| Airport | South Lafourche Leonard Miller Jr Airport (KGAO) |
Arrival
| Time | 2026-05-05 22:12 |
|---|---|
| Airport | Easterwood Field (KCLL) |
| Time | Latitude | Longitude | Altitude | Speed | Heading |
|---|---|---|---|---|---|
| 2026-05-05 20:57 | 29.44667 | -90.26389 | 8 ft | 0 kts | 91° |
| 2026-05-05 21:09 | 29.44665 | -90.26357 | 8 ft | 7 kts | 94° |
| 2026-05-05 21:09 | 29.44666 | -90.26271 | 8 ft | 14 kts | 81° |
| 2026-05-05 21:09 | 29.44781 | -90.26231 | 8 ft | 21 kts | 360° |
| 2026-05-05 21:10 | 29.44935 | -90.26230 | 8 ft | 19 kts | 2° |
| 2026-05-05 21:10 | 29.44997 | -90.26193 | 8 ft | 2 kts | 89° |
| 2026-05-05 21:16 | 29.44997 | -90.26189 | 8 ft | 0 kts | 88° |
| 2026-05-05 21:16 | 29.44964 | -90.26099 | 8 ft | 11 kts | 181° |
| 2026-05-05 21:16 | 29.44797 | -90.26100 | 8 ft | 74 kts | 181° |
| 2026-05-05 21:17 | 29.44012 | -90.26112 | 129 ft | 138 kts | 181° |
| 2026-05-05 21:17 | 29.43070 | -90.26157 | 977 ft | 132 kts | 184° |
| 2026-05-05 21:17 | 29.42188 | -90.26290 | 1667 ft | 138 kts | 197° |
| 2026-05-05 21:17 | 29.41354 | -90.26984 | 2126 ft | 161 kts | 234° |
| 2026-05-05 21:18 | 29.41307 | -90.28207 | 2845 ft | 172 kts | 297° |
| 2026-05-05 21:18 | 29.42373 | -90.29010 | 3241 ft | 200 kts | 339° |
| 2026-05-05 21:18 | 29.43732 | -90.29752 | 3242 ft | 232 kts | 316° |
| 2026-05-05 21:18 | 29.44708 | -90.31324 | 3047 ft | 248 kts | 297° |
| 2026-05-05 21:19 | 29.45547 | -90.32994 | 3352 ft | 240 kts | 295° |
| 2026-05-05 21:19 | 29.46343 | -90.34682 | 3371 ft | 247 kts | 295° |
| 2026-05-05 21:19 | 29.47182 | -90.36487 | 3123 ft | 261 kts | 295° |
| 2026-05-05 21:19 | 29.48001 | -90.38324 | 3205 ft | 258 kts | 294° |
| 2026-05-05 21:20 | 29.48833 | -90.40160 | 3220 ft | 260 kts | 295° |
| 2026-05-05 21:20 | 29.49686 | -90.41991 | 3233 ft | 261 kts | 295° |
| 2026-05-05 21:20 | 29.50365 | -90.43828 | 3716 ft | 241 kts | 280° |
| 2026-05-05 21:20 | 29.50896 | -90.45489 | 4891 ft | 208 kts | 290° |
| 2026-05-05 21:21 | 29.51435 | -90.46830 | 5842 ft | 184 kts | 289° |
| 2026-05-05 21:21 | 29.51958 | -90.48103 | 6566 ft | 174 kts | 290° |
| 2026-05-05 21:21 | 29.52483 | -90.49373 | 7217 ft | 180 kts | 291° |
| 2026-05-05 21:21 | 29.53017 | -90.50653 | 7926 ft | 181 kts | 292° |
| 2026-05-05 21:22 | 29.53553 | -90.51939 | 8657 ft | 179 kts | 293° |
| 2026-05-05 21:22 | 29.54078 | -90.53198 | 9342 ft | 178 kts | 294° |
| 2026-05-05 21:22 | 29.54607 | -90.54464 | 10012 ft | 177 kts | 294° |
| 2026-05-05 21:22 | 29.55126 | -90.55710 | 10650 ft | 176 kts | 294° |
| 2026-05-05 21:23 | 29.55646 | -90.56957 | 11302 ft | 173 kts | 295° |
| 2026-05-05 21:23 | 29.56153 | -90.58173 | 11910 ft | 171 kts | 296° |
| 2026-05-05 21:23 | 29.56659 | -90.59385 | 12490 ft | 170 kts | 296° |
| 2026-05-05 21:23 | 29.57162 | -90.60593 | 13060 ft | 168 kts | 296° |
| 2026-05-05 21:24 | 29.57659 | -90.61786 | 13621 ft | 166 kts | 296° |
| 2026-05-05 21:24 | 29.58159 | -90.62985 | 14162 ft | 165 kts | 296° |
| 2026-05-05 21:24 | 29.58620 | -90.64150 | 14679 ft | 164 kts | 290° |
| 2026-05-05 21:24 | 29.58923 | -90.65408 | 15176 ft | 163 kts | 287° |
| 2026-05-05 21:25 | 29.59200 | -90.66652 | 15680 ft | 164 kts | 287° |
| 2026-05-05 21:25 | 29.59470 | -90.67903 | 16312 ft | 165 kts | 286° |
| 2026-05-05 21:25 | 29.59738 | -90.69156 | 17029 ft | 162 kts | 286° |
| 2026-05-05 21:25 | 29.59994 | -90.70358 | 17753 ft | 156 kts | 286° |
| 2026-05-05 21:26 | 29.60240 | -90.71515 | 18406 ft | 152 kts | 286° |
| 2026-05-05 21:26 | 29.60486 | -90.72675 | 19021 ft | 150 kts | 287° |
| 2026-05-05 21:26 | 29.60728 | -90.73814 | 19580 ft | 149 kts | 287° |
| 2026-05-05 21:26 | 29.60971 | -90.74960 | 20120 ft | 148 kts | 287° |
| 2026-05-05 21:27 | 29.61207 | -90.76080 | 20641 ft | 148 kts | 287° |
| 2026-05-05 21:27 | 29.61444 | -90.77201 | 21156 ft | 146 kts | 288° |
| 2026-05-05 21:27 | 29.61682 | -90.78325 | 21651 ft | 146 kts | 287° |
| 2026-05-05 21:27 | 29.61920 | -90.79454 | 22121 ft | 146 kts | 288° |
| 2026-05-05 21:28 | 29.62153 | -90.80557 | 22585 ft | 144 kts | 288° |
| 2026-05-05 21:28 | 29.62388 | -90.81669 | 23049 ft | 143 kts | 287° |
| 2026-05-05 21:28 | 29.62623 | -90.82779 | 23489 ft | 143 kts | 287° |
| 2026-05-05 21:28 | 29.62855 | -90.83881 | 23864 ft | 148 kts | 287° |
| 2026-05-05 21:29 | 29.63119 | -90.85120 | 23936 ft | 169 kts | 287° |
| 2026-05-05 21:29 | 29.63411 | -90.86497 | 23950 ft | 189 kts | 287° |
| 2026-05-05 21:29 | 29.63740 | -90.88055 | 23949 ft | 209 kts | 286° |
| 2026-05-05 21:29 | 29.64094 | -90.89733 | 23944 ft | 226 kts | 286° |
| 2026-05-05 21:30 | 29.64473 | -90.91532 | 23937 ft | 241 kts | 286° |
| 2026-05-05 21:30 | 29.64880 | -90.93468 | 23938 ft | 253 kts | 286° |
| 2026-05-05 21:30 | 29.65301 | -90.95468 | 23937 ft | 264 kts | 285° |
| 2026-05-05 21:30 | 29.65737 | -90.97549 | 23935 ft | 271 kts | 285° |
| 2026-05-05 21:31 | 29.66166 | -90.99593 | 23918 ft | 267 kts | 285° |
| 2026-05-05 21:31 | 29.66601 | -91.01668 | 23913 ft | 265 kts | 285° |
| 2026-05-05 21:31 | 29.67027 | -91.03702 | 23908 ft | 263 kts | 285° |
| 2026-05-05 21:31 | 29.67456 | -91.05753 | 23906 ft | 261 kts | 285° |
| 2026-05-05 21:32 | 29.67867 | -91.07719 | 23911 ft | 259 kts | 285° |
| 2026-05-05 21:32 | 29.68286 | -91.09723 | 23904 ft | 258 kts | 285° |
| 2026-05-05 21:32 | 29.68705 | -91.11730 | 23907 ft | 256 kts | 285° |
| 2026-05-05 21:32 | 29.69118 | -91.13706 | 23906 ft | 255 kts | 285° |
| 2026-05-05 21:33 | 29.69533 | -91.15703 | 23911 ft | 254 kts | 285° |
| 2026-05-05 21:33 | 29.69943 | -91.17669 | 23907 ft | 253 kts | 285° |
| 2026-05-05 21:33 | 29.70347 | -91.19611 | 23914 ft | 253 kts | 285° |
| 2026-05-05 21:33 | 29.70757 | -91.21581 | 23915 ft | 252 kts | 285° |
| 2026-05-05 21:34 | 29.71164 | -91.23543 | 23916 ft | 252 kts | 285° |
| 2026-05-05 21:34 | 29.71252 | -91.23965 | 23917 ft | 252 kts | 285° |
| 2026-05-05 21:35 | 29.71511 | -91.25214 | 23914 ft | 251 kts | 285° |
| 2026-05-05 21:35 | 29.71918 | -91.27174 | 23919 ft | 253 kts | 285° |
| 2026-05-05 21:35 | 29.77808 | -91.55733 | 23884 ft | 256 kts | 285° |
| 2026-05-05 21:35 | 29.84301 | -91.87593 | 24005 ft | 257 kts | 284° |
| 2026-05-05 21:36 | 29.90844 | -92.20207 | 23914 ft | 259 kts | 284° |
| 2026-05-05 21:36 | 29.97222 | -92.52225 | 23784 ft | 260 kts | 283° |
| 2026-05-05 21:36 | 30.03544 | -92.84772 | 23920 ft | 261 kts | 283° |
| 2026-05-05 21:36 | 30.05669 | -92.95496 | 23881 ft | 263 kts | 282° |
| 2026-05-05 21:37 | 30.06053 | -92.97540 | 23878 ft | 263 kts | 282° |
| 2026-05-05 21:37 | 30.06451 | -92.99628 | 23877 ft | 264 kts | 282° |
| 2026-05-05 21:37 | 30.06844 | -93.01676 | 23878 ft | 264 kts | 283° |
| 2026-05-05 21:37 | 30.07232 | -93.03698 | 23876 ft | 264 kts | 282° |
| 2026-05-05 21:38 | 30.07632 | -93.05778 | 23878 ft | 264 kts | 282° |
| 2026-05-05 21:38 | 30.08030 | -93.07848 | 23877 ft | 265 kts | 283° |
| 2026-05-05 21:38 | 30.08429 | -93.09923 | 23878 ft | 265 kts | 282° |
| 2026-05-05 21:38 | 30.08820 | -93.11958 | 23872 ft | 265 kts | 282° |
| 2026-05-05 21:39 | 30.09219 | -93.14036 | 23871 ft | 265 kts | 282° |
| 2026-05-05 21:39 | 30.09481 | -93.15401 | 23873 ft | 265 kts | 283° |
| 2026-05-05 21:39 | 30.10014 | -93.18187 | 23871 ft | 265 kts | 283° |
| 2026-05-05 21:39 | 30.10406 | -93.20232 | 23876 ft | 264 kts | 282° |
| 2026-05-05 21:40 | 30.10799 | -93.22287 | 23874 ft | 264 kts | 283° |
| 2026-05-05 21:40 | 30.11193 | -93.24350 | 23876 ft | 264 kts | 282° |
| 2026-05-05 21:40 | 30.11586 | -93.26408 | 23875 ft | 264 kts | 282° |
| 2026-05-05 21:40 | 30.11981 | -93.28479 | 23870 ft | 264 kts | 282° |
| 2026-05-05 21:41 | 30.12377 | -93.30558 | 23875 ft | 263 kts | 282° |
| 2026-05-05 21:41 | 30.12639 | -93.31934 | 23869 ft | 263 kts | 282° |
| 2026-05-05 21:41 | 30.13162 | -93.34685 | 23870 ft | 263 kts | 282° |
| 2026-05-05 21:41 | 30.13553 | -93.36740 | 23872 ft | 263 kts | 282° |
| 2026-05-05 21:42 | 30.13941 | -93.38785 | 23868 ft | 263 kts | 282° |
| 2026-05-05 21:42 | 30.14329 | -93.40835 | 23864 ft | 263 kts | 282° |
| 2026-05-05 21:42 | 30.14723 | -93.42911 | 23862 ft | 262 kts | 282° |
| 2026-05-05 21:42 | 30.18584 | -93.63390 | 23798 ft | 262 kts | 282° |
| 2026-05-05 21:43 | 30.24568 | -93.95480 | 23894 ft | 262 kts | 281° |
| 2026-05-05 21:43 | 30.30627 | -94.28424 | 23811 ft | 263 kts | 281° |
| 2026-05-05 21:43 | 30.35215 | -94.53744 | 23807 ft | 262 kts | 280° |
| 2026-05-05 21:43 | 30.35576 | -94.55765 | 23801 ft | 262 kts | 280° |
| 2026-05-05 21:44 | 30.35944 | -94.57824 | 23798 ft | 261 kts | 281° |
| 2026-05-05 21:44 | 30.36309 | -94.59853 | 23796 ft | 261 kts | 280° |
| 2026-05-05 21:44 | 30.36678 | -94.61909 | 23797 ft | 260 kts | 281° |
| 2026-05-05 21:44 | 30.37034 | -94.63896 | 23796 ft | 260 kts | 281° |
| 2026-05-05 21:45 | 30.37405 | -94.65964 | 23805 ft | 260 kts | 280° |
| 2026-05-05 21:45 | 30.37774 | -94.68021 | 23553 ft | 260 kts | 280° |
| 2026-05-05 21:45 | 30.38132 | -94.70013 | 23168 ft | 248 kts | 280° |
| 2026-05-05 21:45 | 30.38473 | -94.71913 | 22788 ft | 237 kts | 280° |
| 2026-05-05 21:46 | 30.38803 | -94.73759 | 22411 ft | 229 kts | 280° |
| 2026-05-05 21:46 | 30.39015 | -94.74944 | 22164 ft | 224 kts | 280° |
| 2026-05-05 21:46 | 30.39425 | -94.77240 | 21677 ft | 216 kts | 279° |
| 2026-05-05 21:46 | 30.39724 | -94.78921 | 21313 ft | 210 kts | 280° |
| 2026-05-05 21:47 | 30.40015 | -94.80550 | 20951 ft | 208 kts | 279° |
| 2026-05-05 21:47 | 30.40309 | -94.82206 | 20592 ft | 210 kts | 279° |
| 2026-05-05 21:47 | 30.40599 | -94.83843 | 20240 ft | 211 kts | 279° |
| 2026-05-05 21:47 | 30.40898 | -94.85523 | 19880 ft | 212 kts | 279° |
| 2026-05-05 21:48 | 30.41193 | -94.87192 | 19525 ft | 214 kts | 279° |
| 2026-05-05 21:48 | 30.41492 | -94.88876 | 19167 ft | 215 kts | 279° |
| 2026-05-05 21:48 | 30.41794 | -94.90578 | 18809 ft | 217 kts | 279° |
| 2026-05-05 21:48 | 30.42094 | -94.92275 | 18451 ft | 218 kts | 279° |
| 2026-05-05 21:49 | 30.42396 | -94.93980 | 18098 ft | 220 kts | 279° |
| 2026-05-05 21:49 | 30.42703 | -94.95712 | 17741 ft | 222 kts | 279° |
| 2026-05-05 21:49 | 30.43013 | -94.97469 | 17379 ft | 223 kts | 279° |
| 2026-05-05 21:49 | 30.43320 | -94.99206 | 17020 ft | 225 kts | 279° |
| 2026-05-05 21:50 | 30.43630 | -95.00963 | 16658 ft | 226 kts | 279° |
| 2026-05-05 21:50 | 30.43945 | -95.02750 | 16298 ft | 227 kts | 279° |
| 2026-05-05 21:50 | 30.44261 | -95.04549 | 15935 ft | 229 kts | 279° |
| 2026-05-05 21:50 | 30.44576 | -95.06338 | 15579 ft | 229 kts | 279° |
| 2026-05-05 21:51 | 30.44896 | -95.08160 | 15211 ft | 230 kts | 279° |
| 2026-05-05 21:51 | 30.45217 | -95.09985 | 14854 ft | 231 kts | 279° |
| 2026-05-05 21:51 | 30.45533 | -95.11787 | 14495 ft | 232 kts | 279° |
| 2026-05-05 21:51 | 30.45855 | -95.13621 | 14137 ft | 232 kts | 279° |
| 2026-05-05 21:52 | 30.46496 | -95.17281 | 13415 ft | 234 kts | 278° |
| 2026-05-05 21:52 | 30.46820 | -95.19135 | 13047 ft | 234 kts | 278° |
| 2026-05-05 21:52 | 30.47142 | -95.20978 | 12690 ft | 235 kts | 279° |
| 2026-05-05 21:53 | 30.47468 | -95.22845 | 12331 ft | 236 kts | 278° |
| 2026-05-05 21:53 | 30.47791 | -95.24701 | 11976 ft | 237 kts | 279° |
| 2026-05-05 21:53 | 30.48117 | -95.26570 | 11615 ft | 238 kts | 278° |
| 2026-05-05 21:53 | 30.48444 | -95.28446 | 11250 ft | 239 kts | 279° |
| 2026-05-05 21:54 | 30.48771 | -95.30329 | 10885 ft | 241 kts | 278° |
| 2026-05-05 21:54 | 30.49103 | -95.32237 | 10522 ft | 242 kts | 278° |
| 2026-05-05 21:54 | 30.49433 | -95.34139 | 10159 ft | 243 kts | 279° |
| 2026-05-05 21:54 | 30.49656 | -95.35425 | 9925 ft | 244 kts | 279° |
| 2026-05-05 21:55 | 30.50103 | -95.37999 | 9442 ft | 246 kts | 278° |
| 2026-05-05 21:55 | 30.50439 | -95.39936 | 9087 ft | 247 kts | 278° |
| 2026-05-05 21:55 | 30.50774 | -95.41874 | 8728 ft | 248 kts | 278° |
| 2026-05-05 21:55 | 30.51106 | -95.43794 | 8381 ft | 249 kts | 278° |
| 2026-05-05 21:56 | 30.51444 | -95.45750 | 8066 ft | 247 kts | 278° |
| 2026-05-05 21:56 | 30.51773 | -95.47655 | 8006 ft | 236 kts | 278° |
| 2026-05-05 21:56 | 30.52088 | -95.49479 | 7980 ft | 225 kts | 278° |
| 2026-05-05 21:56 | 30.52287 | -95.50632 | 7984 ft | 219 kts | 278° |
| 2026-05-05 21:57 | 30.52673 | -95.52873 | 7991 ft | 208 kts | 277° |
| 2026-05-05 21:57 | 30.52951 | -95.54493 | 7987 ft | 202 kts | 277° |
| 2026-05-05 21:57 | 30.53221 | -95.56062 | 7994 ft | 198 kts | 277° |
| 2026-05-05 21:57 | 30.53500 | -95.57709 | 8020 ft | 214 kts | 277° |
| 2026-05-05 21:58 | 30.53794 | -95.59438 | 8018 ft | 226 kts | 278° |
| 2026-05-05 21:58 | 30.54110 | -95.61283 | 8002 ft | 236 kts | 278° |
| 2026-05-05 21:58 | 30.54435 | -95.63179 | 8001 ft | 243 kts | 278° |
| 2026-05-05 21:58 | 30.54768 | -95.65119 | 7994 ft | 248 kts | 277° |
| 2026-05-05 21:59 | 30.55106 | -95.67096 | 7992 ft | 252 kts | 278° |
| 2026-05-05 21:59 | 30.55445 | -95.69070 | 7924 ft | 248 kts | 277° |
| 2026-05-05 21:59 | 30.55669 | -95.70366 | 7618 ft | 241 kts | 277° |
| 2026-05-05 21:59 | 30.56086 | -95.72805 | 7127 ft | 227 kts | 277° |
| 2026-05-05 22:00 | 30.56387 | -95.74569 | 6760 ft | 220 kts | 277° |
| 2026-05-05 22:00 | 30.56678 | -95.76277 | 6395 ft | 214 kts | 277° |
| 2026-05-05 22:00 | 30.56962 | -95.77947 | 6036 ft | 209 kts | 277° |
| 2026-05-05 22:00 | 30.57239 | -95.79578 | 5677 ft | 206 kts | 277° |
| 2026-05-05 22:01 | 30.57514 | -95.81200 | 5314 ft | 203 kts | 276° |
| 2026-05-05 22:01 | 30.57780 | -95.82777 | 4956 ft | 201 kts | 276° |
| 2026-05-05 22:01 | 30.58013 | -95.84360 | 4593 ft | 197 kts | 269° |
| 2026-05-05 22:01 | 30.58052 | -95.85941 | 4233 ft | 195 kts | 266° |
| 2026-05-05 22:02 | 30.58080 | -95.87495 | 3879 ft | 194 kts | 266° |
| 2026-05-05 22:02 | 30.58108 | -95.89056 | 3520 ft | 194 kts | 265° |
| 2026-05-05 22:02 | 30.58126 | -95.90080 | 3293 ft | 194 kts | 266° |
| 2026-05-05 22:02 | 30.58161 | -95.92130 | 2815 ft | 194 kts | 265° |
| 2026-05-05 22:03 | 30.58189 | -95.93694 | 2532 ft | 189 kts | 266° |
| 2026-05-05 22:03 | 30.58216 | -95.95149 | 2486 ft | 173 kts | 265° |
| 2026-05-05 22:03 | 30.58240 | -95.96464 | 2472 ft | 157 kts | 265° |
| 2026-05-05 22:03 | 30.58261 | -95.97659 | 2467 ft | 142 kts | 264° |
| 2026-05-05 22:04 | 30.58369 | -95.98805 | 2495 ft | 158 kts | 282° |
| 2026-05-05 22:04 | 30.58897 | -96.00080 | 2388 ft | 193 kts | 292° |
| 2026-05-05 22:04 | 30.59608 | -96.01550 | 2151 ft | 217 kts | 294° |
| 2026-05-05 22:04 | 30.60348 | -96.03055 | 2104 ft | 217 kts | 295° |
| 2026-05-05 22:05 | 30.61031 | -96.04610 | 2086 ft | 212 kts | 284° |
| 2026-05-05 22:05 | 30.61078 | -96.06226 | 2027 ft | 201 kts | 250° |
| 2026-05-05 22:05 | 30.60331 | -96.07541 | 1646 ft | 196 kts | 216° |
| 2026-05-05 22:05 | 30.59295 | -96.08495 | 1510 ft | 184 kts | 236° |
| 2026-05-05 22:06 | 30.59195 | -96.09948 | 1375 ft | 183 kts | 274° |
| 2026-05-05 22:06 | 30.59387 | -96.11370 | 1350 ft | 170 kts | 274° |
| 2026-05-05 22:06 | 30.59595 | -96.12685 | 1293 ft | 162 kts | 274° |
| 2026-05-05 22:06 | 30.59793 | -96.13914 | 1278 ft | 151 kts | 274° |
| 2026-05-05 22:07 | 30.59987 | -96.15084 | 1276 ft | 151 kts | 275° |
| 2026-05-05 22:07 | 30.60187 | -96.16415 | 1320 ft | 182 kts | 274° |
| 2026-05-05 22:07 | 30.60404 | -96.17966 | 1316 ft | 207 kts | 274° |
| 2026-05-05 22:07 | 30.60632 | -96.19691 | 1317 ft | 225 kts | 274° |
| 2026-05-05 22:08 | 30.60675 | -96.21525 | 1316 ft | 233 kts | 262° |
| 2026-05-05 22:08 | 30.60509 | -96.23424 | 1296 ft | 240 kts | 255° |
| 2026-05-05 22:08 | 30.60264 | -96.24682 | 1307 ft | 243 kts | 255° |
| 2026-05-05 22:08 | 30.59930 | -96.27206 | 1276 ft | 230 kts | 259° |
| 2026-05-05 22:09 | 30.59722 | -96.28962 | 1276 ft | 221 kts | 258° |
| 2026-05-05 22:09 | 30.59518 | -96.30710 | 1276 ft | 214 kts | 259° |
| 2026-05-05 22:09 | 30.59397 | -96.31821 | 1230 ft | 207 kts | 260° |
| 2026-05-05 22:09 | 30.59774 | -96.33859 | 1250 ft | 202 kts | 307° |
| 2026-05-05 22:10 | 30.60927 | -96.34560 | 1471 ft | 184 kts | 345° |
| 2026-05-05 22:10 | 30.62165 | -96.34880 | 1445 ft | 183 kts | 343° |
| 2026-05-05 22:10 | 30.62945 | -96.35199 | 1354 ft | 174 kts | 322° |
| 2026-05-05 22:10 | 30.63406 | -96.36613 | 1439 ft | 155 kts | 248° |
| 2026-05-05 22:11 | 30.62616 | -96.37392 | 1515 ft | 161 kts | 183° |
| 2026-05-05 22:11 | 30.61624 | -96.36916 | 1148 ft | 149 kts | 159° |
| 2026-05-05 22:11 | 30.60713 | -96.36539 | 735 ft | 136 kts | 166° |
| 2026-05-05 22:11 | 30.59830 | -96.36327 | 392 ft | 122 kts | 170° |
| 2026-05-05 22:12 | 30.59079 | -96.36154 | 301 ft | 98 kts | 169° |
| 2026-05-05 22:12 | 30.58653 | -96.36064 | 297 ft | 80 kts | 172° |
| 2026-05-05 22:12 | 30.58294 | -96.35957 | 295 ft | 6 kts | 123° |
| 2026-05-05 22:12 | 30.58299 | -96.35888 | 294 ft | 19 kts | 62° |
| 2026-05-05 22:13 | 30.58481 | -96.35902 | 295 ft | 29 kts | 349° |
| 2026-05-05 22:13 | 30.58614 | -96.35932 | 296 ft | 29 kts | 344° |
| 2026-05-05 22:13 | 30.58850 | -96.35908 | 295 ft | 27 kts | 6° |
| 2026-05-05 22:13 | 30.58970 | -96.35916 | 296 ft | 4 kts | 346° |
| 2026-05-05 22:14 | 30.59026 | -96.35959 | 298 ft | 12 kts | 351° |
| 2026-05-05 22:14 | 30.59052 | -96.35951 | 298 ft | 0 kts | 169° |